sensor_id;sensor_type;location;lat;lon;timestamp;P1;durP1;ratioP1;P2;durP2;ratioP2
51358;SDS011;37448;51.588;7.248;2023-12-20T00:01:22;21.63;;;10.27;;
51358;SDS011;37448;51.588;7.248;2023-12-20T00:03:23;22.63;;;10.75;;
51358;SDS011;37448;51.588;7.248;2023-12-20T00:05:24;18.98;;;10.07;;
51358;SDS011;37448;51.588;7.248;2023-12-20T00:07:24;19.77;;;9.32;;
51358;SDS011;37448;51.588;7.248;2023-12-20T00:09:24;20.23;;;11.13;;
51358;SDS011;37448;51.588;7.248;2023-12-20T00:11:25;20.88;;;9.80;;
51358;SDS011;37448;51.588;7.248;2023-12-20T00:13:25;18.13;;;9.00;;
51358;SDS011;37448;51.588;7.248;2023-12-20T00:15:26;18.02;;;10.10;;
51358;SDS011;37448;51.588;7.248;2023-12-20T00:17:26;18.98;;;9.25;;
51358;SDS011;37448;51.588;7.248;2023-12-20T00:19:26;16.67;;;8.63;;
51358;SDS011;37448;51.588;7.248;2023-12-20T00:21:27;16.95;;;9.43;;
51358;SDS011;37448;51.588;7.248;2023-12-20T00:23:27;16.33;;;7.88;;
51358;SDS011;37448;51.588;7.248;2023-12-20T00:25:28;17.50;;;8.32;;
51358;SDS011;37448;51.588;7.248;2023-12-20T00:27:28;16.40;;;8.02;;
51358;SDS011;37448;51.588;7.248;2023-12-20T00:29:29;12.68;;;6.40;;
51358;SDS011;37448;51.588;7.248;2023-12-20T00:31:30;18.23;;;6.78;;
51358;SDS011;37448;51.588;7.248;2023-12-20T00:33:30;15.40;;;6.97;;
51358;SDS011;37448;51.588;7.248;2023-12-20T00:35:30;14.30;;;6.65;;
51358;SDS011;37448;51.588;7.248;2023-12-20T00:37:31;10.35;;;5.20;;
51358;SDS011;37448;51.588;7.248;2023-12-20T00:39:31;15.32;;;6.07;;
51358;SDS011;37448;51.588;7.248;2023-12-20T00:41:33;14.40;;;5.75;;
51358;SDS011;37448;51.588;7.248;2023-12-20T00:43:33;12.13;;;5.75;;
51358;SDS011;37448;51.588;7.248;2023-12-20T00:45:33;10.55;;;5.43;;
51358;SDS011;37448;51.588;7.248;2023-12-20T00:47:34;11.23;;;5.55;;
51358;SDS011;37448;51.588;7.248;2023-12-20T00:49:34;10.45;;;5.18;;
51358;SDS011;37448;51.588;7.248;2023-12-20T00:51:35;16.20;;;5.63;;
51358;SDS011;37448;51.588;7.248;2023-12-20T00:53:35;9.77;;;4.95;;
51358;SDS011;37448;51.588;7.248;2023-12-20T00:55:36;9.52;;;5.50;;
51358;SDS011;37448;51.588;7.248;2023-12-20T00:57:36;10.35;;;5.65;;
51358;SDS011;37448;51.588;7.248;2023-12-20T00:59:36;14.90;;;5.55;;
51358;SDS011;37448;51.588;7.248;2023-12-20T01:01:37;11.00;;;4.90;;
51358;SDS011;37448;51.588;7.248;2023-12-20T01:03:38;11.75;;;5.10;;
51358;SDS011;37448;51.588;7.248;2023-12-20T01:05:39;9.32;;;4.32;;
51358;SDS011;37448;51.588;7.248;2023-12-20T01:07:39;14.13;;;4.90;;
51358;SDS011;37448;51.588;7.248;2023-12-20T01:09:40;6.30;;;3.05;;
51358;SDS011;37448;51.588;7.248;2023-12-20T01:11:40;13.05;;;4.30;;
51358;SDS011;37448;51.588;7.248;2023-12-20T01:13:40;9.18;;;3.95;;
51358;SDS011;37448;51.588;7.248;2023-12-20T01:15:41;8.35;;;3.65;;
51358;SDS011;37448;51.588;7.248;2023-12-20T01:17:41;9.45;;;3.42;;
51358;SDS011;37448;51.588;7.248;2023-12-20T01:19:42;12.70;;;3.50;;
51358;SDS011;37448;51.588;7.248;2023-12-20T01:21:42;8.75;;;3.58;;
51358;SDS011;37448;51.588;7.248;2023-12-20T01:23:43;9.77;;;3.70;;
51358;SDS011;37448;51.588;7.248;2023-12-20T01:25:43;6.95;;;3.40;;
51358;SDS011;37448;51.588;7.248;2023-12-20T01:27:44;9.93;;;4.18;;
51358;SDS011;37448;51.588;7.248;2023-12-20T01:29:44;11.10;;;3.75;;
51358;SDS011;37448;51.588;7.248;2023-12-20T01:31:45;7.70;;;3.58;;
51358;SDS011;37448;51.588;7.248;2023-12-20T01:33:45;7.10;;;3.97;;
51358;SDS011;37448;51.588;7.248;2023-12-20T01:35:46;9.35;;;3.90;;
51358;SDS011;37448;51.588;7.248;2023-12-20T01:37:46;6.63;;;4.05;;
51358;SDS011;37448;51.588;7.248;2023-12-20T01:39:47;13.35;;;3.67;;
51358;SDS011;37448;51.588;7.248;2023-12-20T01:41:47;8.60;;;3.85;;
51358;SDS011;37448;51.588;7.248;2023-12-20T01:43:47;8.10;;;3.70;;
51358;SDS011;37448;51.588;7.248;2023-12-20T01:45:48;6.10;;;3.05;;
51358;SDS011;37448;51.588;7.248;2023-12-20T01:47:48;7.32;;;4.22;;
51358;SDS011;37448;51.588;7.248;2023-12-20T01:49:49;8.35;;;3.42;;
51358;SDS011;37448;51.588;7.248;2023-12-20T01:51:50;6.78;;;3.42;;
51358;SDS011;37448;51.588;7.248;2023-12-20T01:53:50;11.38;;;4.47;;
51358;SDS011;37448;51.588;7.248;2023-12-20T01:55:50;12.63;;;4.20;;
51358;SDS011;37448;51.588;7.248;2023-12-20T01:57:54;10.93;;;3.88;;
51358;SDS011;37448;51.588;7.248;2023-12-20T01:59:56;10.75;;;3.95;;
51358;SDS011;37448;51.588;7.248;2023-12-20T02:01:56;12.25;;;4.13;;
51358;SDS011;37448;51.588;7.248;2023-12-20T02:03:57;10.23;;;3.67;;
51358;SDS011;37448;51.588;7.248;2023-12-20T02:05:59;16.02;;;5.03;;
51358;SDS011;37448;51.588;7.248;2023-12-20T02:07:59;14.30;;;4.70;;
51358;SDS011;37448;51.588;7.248;2023-12-20T02:10:03;10.32;;;3.75;;
51358;SDS011;37448;51.588;7.248;2023-12-20T02:12:06;10.77;;;4.40;;
51358;SDS011;37448;51.588;7.248;2023-12-20T02:14:07;12.43;;;4.82;;
51358;SDS011;37448;51.588;7.248;2023-12-20T02:16:08;10.27;;;4.45;;
51358;SDS011;37448;51.588;7.248;2023-12-20T02:18:08;12.45;;;5.03;;
51358;SDS011;37448;51.588;7.248;2023-12-20T02:20:09;11.88;;;4.70;;
51358;SDS011;37448;51.588;7.248;2023-12-20T02:22:10;10.02;;;4.00;;
51358;SDS011;37448;51.588;7.248;2023-12-20T02:24:10;13.30;;;4.95;;
51358;SDS011;37448;51.588;7.248;2023-12-20T02:26:11;14.27;;;4.65;;
51358;SDS011;37448;51.588;7.248;2023-12-20T02:28:13;10.18;;;3.63;;
51358;SDS011;37448;51.588;7.248;2023-12-20T02:30:14;8.15;;;4.00;;
51358;SDS011;37448;51.588;7.248;2023-12-20T02:32:15;10.02;;;5.00;;
51358;SDS011;37448;51.588;7.248;2023-12-20T02:34:16;8.70;;;4.10;;
51358;SDS011;37448;51.588;7.248;2023-12-20T02:36:17;11.68;;;4.32;;
51358;SDS011;37448;51.588;7.248;2023-12-20T02:38:17;11.77;;;4.65;;
51358;SDS011;37448;51.588;7.248;2023-12-20T02:40:17;11.40;;;4.65;;
51358;SDS011;37448;51.588;7.248;2023-12-20T02:42:18;13.48;;;5.32;;
51358;SDS011;37448;51.588;7.248;2023-12-20T02:44:18;9.85;;;4.22;;
51358;SDS011;37448;51.588;7.248;2023-12-20T02:46:19;11.38;;;4.25;;
51358;SDS011;37448;51.588;7.248;2023-12-20T02:48:19;8.25;;;4.38;;
51358;SDS011;37448;51.588;7.248;2023-12-20T02:50:19;15.10;;;4.82;;
51358;SDS011;37448;51.588;7.248;2023-12-20T02:52:20;12.52;;;4.25;;
51358;SDS011;37448;51.588;7.248;2023-12-20T02:54:21;12.82;;;3.55;;
51358;SDS011;37448;51.588;7.248;2023-12-20T02:56:21;11.52;;;4.53;;
51358;SDS011;37448;51.588;7.248;2023-12-20T02:58:21;10.52;;;4.20;;
51358;SDS011;37448;51.588;7.248;2023-12-20T03:00:22;7.93;;;4.10;;
51358;SDS011;37448;51.588;7.248;2023-12-20T03:02:22;11.50;;;3.90;;
51358;SDS011;37448;51.588;7.248;2023-12-20T03:04:22;10.77;;;4.18;;
51358;SDS011;37448;51.588;7.248;2023-12-20T03:06:23;8.98;;;4.00;;
51358;SDS011;37448;51.588;7.248;2023-12-20T03:08:23;9.27;;;3.88;;
51358;SDS011;37448;51.588;7.248;2023-12-20T03:10:24;11.52;;;4.00;;
51358;SDS011;37448;51.588;7.248;2023-12-20T03:12:24;9.20;;;4.25;;
51358;SDS011;37448;51.588;7.248;2023-12-20T03:14:24;10.07;;;4.03;;
51358;SDS011;37448;51.588;7.248;2023-12-20T03:16:25;13.60;;;4.53;;
51358;SDS011;37448;51.588;7.248;2023-12-20T03:18:25;8.18;;;4.15;;
51358;SDS011;37448;51.588;7.248;2023-12-20T03:20:29;11.48;;;5.07;;
51358;SDS011;37448;51.588;7.248;2023-12-20T03:22:33;11.20;;;5.25;;
51358;SDS011;37448;51.588;7.248;2023-12-20T03:24:33;12.48;;;5.10;;
51358;SDS011;37448;51.588;7.248;2023-12-20T03:26:34;13.88;;;5.35;;
51358;SDS011;37448;51.588;7.248;2023-12-20T03:28:34;12.48;;;5.07;;
51358;SDS011;37448;51.588;7.248;2023-12-20T03:30:36;17.85;;;5.30;;
51358;SDS011;37448;51.588;7.248;2023-12-20T03:32:38;17.08;;;5.72;;
51358;SDS011;37448;51.588;7.248;2023-12-20T03:34:39;12.63;;;6.03;;
51358;SDS011;37448;51.588;7.248;2023-12-20T03:36:39;17.52;;;5.50;;
51358;SDS011;37448;51.588;7.248;2023-12-20T03:38:40;14.10;;;6.03;;
51358;SDS011;37448;51.588;7.248;2023-12-20T03:40:40;10.70;;;5.72;;
51358;SDS011;37448;51.588;7.248;2023-12-20T03:42:41;14.82;;;6.82;;
51358;SDS011;37448;51.588;7.248;2023-12-20T03:44:41;14.02;;;6.05;;
51358;SDS011;37448;51.588;7.248;2023-12-20T03:46:41;13.40;;;5.25;;
51358;SDS011;37448;51.588;7.248;2023-12-20T03:48:42;11.77;;;4.15;;
51358;SDS011;37448;51.588;7.248;2023-12-20T03:50:42;11.73;;;4.93;;
51358;SDS011;37448;51.588;7.248;2023-12-20T03:52:42;18.30;;;6.18;;
51358;SDS011;37448;51.588;7.248;2023-12-20T03:54:43;8.13;;;4.50;;
51358;SDS011;37448;51.588;7.248;2023-12-20T03:56:43;10.40;;;4.57;;
51358;SDS011;37448;51.588;7.248;2023-12-20T03:58:43;15.80;;;5.00;;
51358;SDS011;37448;51.588;7.248;2023-12-20T04:00:44;14.23;;;5.22;;
51358;SDS011;37448;51.588;7.248;2023-12-20T04:02:44;11.10;;;4.05;;
51358;SDS011;37448;51.588;7.248;2023-12-20T04:04:44;11.32;;;3.72;;
51358;SDS011;37448;51.588;7.248;2023-12-20T04:06:45;18.10;;;4.80;;
51358;SDS011;37448;51.588;7.248;2023-12-20T04:08:45;10.15;;;3.70;;
51358;SDS011;37448;51.588;7.248;2023-12-20T04:10:46;12.02;;;3.88;;
51358;SDS011;37448;51.588;7.248;2023-12-20T04:12:46;9.15;;;3.60;;
51358;SDS011;37448;51.588;7.248;2023-12-20T04:14:46;9.88;;;3.63;;
51358;SDS011;37448;51.588;7.248;2023-12-20T04:16:47;15.95;;;4.03;;
51358;SDS011;37448;51.588;7.248;2023-12-20T04:18:47;8.80;;;3.42;;
51358;SDS011;37448;51.588;7.248;2023-12-20T04:20:48;10.00;;;3.85;;
51358;SDS011;37448;51.588;7.248;2023-12-20T04:22:49;13.35;;;3.72;;
51358;SDS011;37448;51.588;7.248;2023-12-20T04:24:49;11.60;;;4.35;;
51358;SDS011;37448;51.588;7.248;2023-12-20T04:26:50;14.05;;;4.30;;
51358;SDS011;37448;51.588;7.248;2023-12-20T04:28:50;9.52;;;3.67;;
51358;SDS011;37448;51.588;7.248;2023-12-20T04:30:50;15.07;;;4.47;;
51358;SDS011;37448;51.588;7.248;2023-12-20T04:32:51;15.18;;;4.95;;
51358;SDS011;37448;51.588;7.248;2023-12-20T04:34:51;11.30;;;4.57;;
51358;SDS011;37448;51.588;7.248;2023-12-20T04:36:52;17.00;;;7.05;;
51358;SDS011;37448;51.588;7.248;2023-12-20T04:38:53;11.77;;;5.40;;
51358;SDS011;37448;51.588;7.248;2023-12-20T04:40:53;16.98;;;5.63;;
51358;SDS011;37448;51.588;7.248;2023-12-20T04:42:54;14.23;;;5.22;;
51358;SDS011;37448;51.588;7.248;2023-12-20T04:44:54;14.15;;;6.03;;
51358;SDS011;37448;51.588;7.248;2023-12-20T04:46:54;12.75;;;5.80;;
51358;SDS011;37448;51.588;7.248;2023-12-20T04:48:56;15.15;;;6.03;;
51358;SDS011;37448;51.588;7.248;2023-12-20T04:50:56;13.13;;;5.82;;
51358;SDS011;37448;51.588;7.248;2023-12-20T04:52:57;16.58;;;7.25;;
51358;SDS011;37448;51.588;7.248;2023-12-20T04:54:57;14.32;;;5.78;;
51358;SDS011;37448;51.588;7.248;2023-12-20T04:56:59;16.00;;;5.47;;
51358;SDS011;37448;51.588;7.248;2023-12-20T04:58:59;18.02;;;5.88;;
51358;SDS011;37448;51.588;7.248;2023-12-20T05:01:00;11.75;;;5.57;;
51358;SDS011;37448;51.588;7.248;2023-12-20T05:03:00;14.85;;;5.88;;
51358;SDS011;37448;51.588;7.248;2023-12-20T05:05:01;11.50;;;5.88;;
51358;SDS011;37448;51.588;7.248;2023-12-20T05:07:01;14.52;;;5.97;;
51358;SDS011;37448;51.588;7.248;2023-12-20T05:09:04;17.02;;;5.85;;
51358;SDS011;37448;51.588;7.248;2023-12-20T05:11:05;10.02;;;4.55;;
51358;SDS011;37448;51.588;7.248;2023-12-20T05:13:06;16.50;;;4.57;;
51358;SDS011;37448;51.588;7.248;2023-12-20T05:15:06;11.00;;;5.15;;
51358;SDS011;37448;51.588;7.248;2023-12-20T05:17:07;10.93;;;4.30;;
51358;SDS011;37448;51.588;7.248;2023-12-20T05:19:07;11.35;;;5.72;;
51358;SDS011;37448;51.588;7.248;2023-12-20T05:21:08;17.92;;;6.38;;
51358;SDS011;37448;51.588;7.248;2023-12-20T05:23:08;15.13;;;5.00;;
51358;SDS011;37448;51.588;7.248;2023-12-20T05:25:09;9.38;;;5.93;;
51358;SDS011;37448;51.588;7.248;2023-12-20T05:27:10;14.82;;;5.90;;
51358;SDS011;37448;51.588;7.248;2023-12-20T05:29:11;10.73;;;5.03;;
51358;SDS011;37448;51.588;7.248;2023-12-20T05:31:11;13.35;;;5.70;;
51358;SDS011;37448;51.588;7.248;2023-12-20T05:33:12;12.15;;;5.90;;
51358;SDS011;37448;51.588;7.248;2023-12-20T05:35:12;13.35;;;6.25;;
51358;SDS011;37448;51.588;7.248;2023-12-20T05:37:13;13.80;;;5.78;;
51358;SDS011;37448;51.588;7.248;2023-12-20T05:39:13;14.13;;;6.03;;
51358;SDS011;37448;51.588;7.248;2023-12-20T05:41:14;13.13;;;6.35;;
51358;SDS011;37448;51.588;7.248;2023-12-20T05:43:14;17.20;;;6.43;;
51358;SDS011;37448;51.588;7.248;2023-12-20T05:45:15;15.00;;;6.18;;
51358;SDS011;37448;51.588;7.248;2023-12-20T05:47:16;14.95;;;6.22;;
51358;SDS011;37448;51.588;7.248;2023-12-20T05:49:17;20.08;;;6.22;;
51358;SDS011;37448;51.588;7.248;2023-12-20T05:51:17;13.63;;;6.55;;
51358;SDS011;37448;51.588;7.248;2023-12-20T05:53:18;13.77;;;6.95;;
51358;SDS011;37448;51.588;7.248;2023-12-20T05:55:18;13.55;;;5.43;;
51358;SDS011;37448;51.588;7.248;2023-12-20T05:57:18;14.68;;;6.53;;
51358;SDS011;37448;51.588;7.248;2023-12-20T05:59:19;15.77;;;6.28;;
51358;SDS011;37448;51.588;7.248;2023-12-20T06:01:20;13.95;;;6.47;;
51358;SDS011;37448;51.588;7.248;2023-12-20T06:03:20;16.83;;;6.05;;
51358;SDS011;37448;51.588;7.248;2023-12-20T06:05:20;14.63;;;6.35;;
51358;SDS011;37448;51.588;7.248;2023-12-20T06:07:21;19.95;;;6.40;;
51358;SDS011;37448;51.588;7.248;2023-12-20T06:09:21;14.35;;;6.40;;
51358;SDS011;37448;51.588;7.248;2023-12-20T06:11:21;12.63;;;6.40;;
51358;SDS011;37448;51.588;7.248;2023-12-20T06:13:22;10.00;;;4.95;;
51358;SDS011;37448;51.588;7.248;2023-12-20T06:15:22;13.80;;;5.93;;
51358;SDS011;37448;51.588;7.248;2023-12-20T06:17:23;16.92;;;5.75;;
51358;SDS011;37448;51.588;7.248;2023-12-20T06:19:24;16.20;;;5.47;;
51358;SDS011;37448;51.588;7.248;2023-12-20T06:21:24;11.95;;;4.95;;
51358;SDS011;37448;51.588;7.248;2023-12-20T06:23:24;12.27;;;5.13;;
51358;SDS011;37448;51.588;7.248;2023-12-20T06:25:25;10.15;;;5.28;;
51358;SDS011;37448;51.588;7.248;2023-12-20T06:27:25;16.20;;;5.78;;
51358;SDS011;37448;51.588;7.248;2023-12-20T06:29:25;15.88;;;5.63;;
51358;SDS011;37448;51.588;7.248;2023-12-20T06:31:26;11.68;;;5.72;;
51358;SDS011;37448;51.588;7.248;2023-12-20T06:33:26;24.17;;;6.38;;
51358;SDS011;37448;51.588;7.248;2023-12-20T06:35:27;14.80;;;5.72;;
51358;SDS011;37448;51.588;7.248;2023-12-20T06:37:28;17.85;;;6.63;;
51358;SDS011;37448;51.588;7.248;2023-12-20T06:39:28;14.93;;;5.18;;
51358;SDS011;37448;51.588;7.248;2023-12-20T06:41:30;15.23;;;5.68;;
51358;SDS011;37448;51.588;7.248;2023-12-20T06:43:31;17.00;;;7.30;;
51358;SDS011;37448;51.588;7.248;2023-12-20T06:45:32;12.20;;;5.60;;
51358;SDS011;37448;51.588;7.248;2023-12-20T06:47:32;12.75;;;6.00;;
51358;SDS011;37448;51.588;7.248;2023-12-20T06:49:33;18.42;;;7.38;;
51358;SDS011;37448;51.588;7.248;2023-12-20T06:51:33;16.02;;;5.85;;
51358;SDS011;37448;51.588;7.248;2023-12-20T06:53:34;10.45;;;5.03;;
51358;SDS011;37448;51.588;7.248;2023-12-20T06:55:35;14.82;;;6.07;;
51358;SDS011;37448;51.588;7.248;2023-12-20T06:57:36;14.80;;;5.45;;
51358;SDS011;37448;51.588;7.248;2023-12-20T06:59:40;11.52;;;5.63;;
51358;SDS011;37448;51.588;7.248;2023-12-20T07:01:41;15.02;;;6.15;;
51358;SDS011;37448;51.588;7.248;2023-12-20T07:03:41;14.73;;;5.55;;
51358;SDS011;37448;51.588;7.248;2023-12-20T07:05:42;11.50;;;6.22;;
51358;SDS011;37448;51.588;7.248;2023-12-20T07:07:42;17.55;;;6.65;;
51358;SDS011;37448;51.588;7.248;2023-12-20T07:09:42;16.73;;;7.63;;
51358;SDS011;37448;51.588;7.248;2023-12-20T07:11:43;20.20;;;7.13;;
51358;SDS011;37448;51.588;7.248;2023-12-20T07:13:43;15.77;;;6.85;;
51358;SDS011;37448;51.588;7.248;2023-12-20T07:15:44;13.02;;;4.82;;
51358;SDS011;37448;51.588;7.248;2023-12-20T07:17:44;15.90;;;6.75;;
51358;SDS011;37448;51.588;7.248;2023-12-20T07:19:44;13.85;;;6.53;;
51358;SDS011;37448;51.588;7.248;2023-12-20T07:21:45;22.13;;;6.00;;
51358;SDS011;37448;51.588;7.248;2023-12-20T07:23:45;20.98;;;6.30;;
51358;SDS011;37448;51.588;7.248;2023-12-20T07:25:45;16.98;;;6.03;;
51358;SDS011;37448;51.588;7.248;2023-12-20T07:27:46;14.63;;;6.35;;
51358;SDS011;37448;51.588;7.248;2023-12-20T07:29:46;14.48;;;5.47;;
51358;SDS011;37448;51.588;7.248;2023-12-20T07:31:46;14.52;;;5.90;;
51358;SDS011;37448;51.588;7.248;2023-12-20T07:33:47;15.07;;;5.43;;
51358;SDS011;37448;51.588;7.248;2023-12-20T07:35:47;14.57;;;6.20;;
51358;SDS011;37448;51.588;7.248;2023-12-20T07:37:48;15.77;;;6.65;;
51358;SDS011;37448;51.588;7.248;2023-12-20T07:39:48;13.15;;;6.35;;
51358;SDS011;37448;51.588;7.248;2023-12-20T07:41:49;18.88;;;7.50;;
51358;SDS011;37448;51.588;7.248;2023-12-20T07:43:49;13.77;;;6.03;;
51358;SDS011;37448;51.588;7.248;2023-12-20T07:45:49;14.13;;;6.50;;
51358;SDS011;37448;51.588;7.248;2023-12-20T07:47:50;18.33;;;6.88;;
51358;SDS011;37448;51.588;7.248;2023-12-20T07:49:53;15.60;;;6.68;;
51358;SDS011;37448;51.588;7.248;2023-12-20T07:51:53;12.60;;;6.03;;
51358;SDS011;37448;51.588;7.248;2023-12-20T07:53:54;14.85;;;5.97;;
51358;SDS011;37448;51.588;7.248;2023-12-20T07:55:54;16.90;;;7.07;;
51358;SDS011;37448;51.588;7.248;2023-12-20T07:57:55;15.55;;;5.90;;
51358;SDS011;37448;51.588;7.248;2023-12-20T07:59:55;13.32;;;6.25;;
51358;SDS011;37448;51.588;7.248;2023-12-20T08:01:56;22.70;;;6.50;;
51358;SDS011;37448;51.588;7.248;2023-12-20T08:03:56;12.20;;;5.90;;
51358;SDS011;37448;51.588;7.248;2023-12-20T08:05:57;14.15;;;5.78;;
51358;SDS011;37448;51.588;7.248;2023-12-20T08:07:59;11.35;;;5.47;;
51358;SDS011;37448;51.588;7.248;2023-12-20T08:09:59;11.85;;;5.88;;
51358;SDS011;37448;51.588;7.248;2023-12-20T08:12:00;16.45;;;5.95;;
51358;SDS011;37448;51.588;7.248;2023-12-20T08:14:00;11.73;;;5.50;;
51358;SDS011;37448;51.588;7.248;2023-12-20T08:16:01;14.32;;;6.35;;
51358;SDS011;37448;51.588;7.248;2023-12-20T08:18:03;12.00;;;5.07;;
51358;SDS011;37448;51.588;7.248;2023-12-20T08:20:03;14.95;;;5.07;;
51358;SDS011;37448;51.588;7.248;2023-12-20T08:22:04;19.23;;;5.97;;
51358;SDS011;37448;51.588;7.248;2023-12-20T08:24:05;16.38;;;5.53;;
51358;SDS011;37448;51.588;7.248;2023-12-20T08:26:08;17.17;;;5.57;;
51358;SDS011;37448;51.588;7.248;2023-12-20T08:28:09;18.75;;;6.40;;
51358;SDS011;37448;51.588;7.248;2023-12-20T08:30:09;16.77;;;6.28;;
51358;SDS011;37448;51.588;7.248;2023-12-20T08:32:12;17.42;;;5.57;;
51358;SDS011;37448;51.588;7.248;2023-12-20T08:34:13;15.15;;;4.90;;
51358;SDS011;37448;51.588;7.248;2023-12-20T08:36:15;14.20;;;5.57;;
51358;SDS011;37448;51.588;7.248;2023-12-20T08:38:17;16.95;;;5.00;;
51358;SDS011;37448;51.588;7.248;2023-12-20T08:40:18;11.95;;;5.30;;
51358;SDS011;37448;51.588;7.248;2023-12-20T08:42:18;23.75;;;5.57;;
51358;SDS011;37448;51.588;7.248;2023-12-20T08:44:19;14.57;;;5.78;;
51358;SDS011;37448;51.588;7.248;2023-12-20T08:46:21;12.48;;;5.43;;
51358;SDS011;37448;51.588;7.248;2023-12-20T08:48:21;11.60;;;5.03;;
51358;SDS011;37448;51.588;7.248;2023-12-20T08:50:21;12.05;;;5.63;;
51358;SDS011;37448;51.588;7.248;2023-12-20T08:52:22;14.80;;;6.20;;
51358;SDS011;37448;51.588;7.248;2023-12-20T08:54:23;11.43;;;4.75;;
51358;SDS011;37448;51.588;7.248;2023-12-20T08:56:24;12.25;;;5.53;;
51358;SDS011;37448;51.588;7.248;2023-12-20T08:58:24;22.40;;;5.72;;
51358;SDS011;37448;51.588;7.248;2023-12-20T09:00:25;11.05;;;5.07;;
51358;SDS011;37448;51.588;7.248;2023-12-20T09:02:27;12.27;;;4.95;;
51358;SDS011;37448;51.588;7.248;2023-12-20T09:04:29;12.57;;;4.93;;
51358;SDS011;37448;51.588;7.248;2023-12-20T09:06:29;12.93;;;5.22;;
51358;SDS011;37448;51.588;7.248;2023-12-20T09:08:29;20.58;;;5.22;;
51358;SDS011;37448;51.588;7.248;2023-12-20T09:10:30;13.77;;;4.60;;
51358;SDS011;37448;51.588;7.248;2023-12-20T09:12:30;10.52;;;4.38;;
51358;SDS011;37448;51.588;7.248;2023-12-20T09:14:31;12.90;;;5.90;;
51358;SDS011;37448;51.588;7.248;2023-12-20T09:16:31;14.02;;;5.07;;
51358;SDS011;37448;51.588;7.248;2023-12-20T09:18:31;16.00;;;5.57;;
51358;SDS011;37448;51.588;7.248;2023-12-20T09:20:32;21.50;;;5.57;;
51358;SDS011;37448;51.588;7.248;2023-12-20T09:22:33;18.08;;;5.50;;
51358;SDS011;37448;51.588;7.248;2023-12-20T09:24:33;13.65;;;5.10;;
51358;SDS011;37448;51.588;7.248;2023-12-20T09:26:34;14.18;;;4.55;;
51358;SDS011;37448;51.588;7.248;2023-12-20T09:28:34;14.40;;;5.00;;
51358;SDS011;37448;51.588;7.248;2023-12-20T09:30:37;14.57;;;4.60;;
51358;SDS011;37448;51.588;7.248;2023-12-20T09:32:39;10.48;;;3.80;;
51358;SDS011;37448;51.588;7.248;2023-12-20T09:34:40;12.15;;;4.10;;
51358;SDS011;37448;51.588;7.248;2023-12-20T09:36:41;10.43;;;4.15;;
51358;SDS011;37448;51.588;7.248;2023-12-20T09:38:46;14.75;;;4.53;;
51358;SDS011;37448;51.588;7.248;2023-12-20T09:40:46;8.70;;;4.15;;
51358;SDS011;37448;51.588;7.248;2023-12-20T09:47:14;10.20;;;3.38;;
51358;SDS011;37448;51.588;7.248;2023-12-20T09:49:19;11.02;;;4.15;;
51358;SDS011;37448;51.588;7.248;2023-12-20T09:51:20;14.00;;;4.85;;
51358;SDS011;37448;51.588;7.248;2023-12-20T09:53:21;10.63;;;4.47;;
51358;SDS011;37448;51.588;7.248;2023-12-20T09:55:23;11.63;;;4.53;;
51358;SDS011;37448;51.588;7.248;2023-12-20T09:57:25;18.15;;;4.78;;
51358;SDS011;37448;51.588;7.248;2023-12-20T09:59:25;12.13;;;4.30;;
51358;SDS011;37448;51.588;7.248;2023-12-20T10:01:26;10.00;;;4.05;;
51358;SDS011;37448;51.588;7.248;2023-12-20T10:03:28;13.15;;;4.18;;
51358;SDS011;37448;51.588;7.248;2023-12-20T10:05:31;14.90;;;4.55;;
51358;SDS011;37448;51.588;7.248;2023-12-20T10:07:32;12.90;;;5.30;;
51358;SDS011;37448;51.588;7.248;2023-12-20T10:09:33;13.15;;;4.88;;
51358;SDS011;37448;51.588;7.248;2023-12-20T10:11:35;9.15;;;4.35;;
51358;SDS011;37448;51.588;7.248;2023-12-20T10:13:40;11.60;;;5.07;;
51358;SDS011;37448;51.588;7.248;2023-12-20T10:15:41;7.38;;;3.50;;
51358;SDS011;37448;51.588;7.248;2023-12-20T10:17:41;14.07;;;3.90;;
51358;SDS011;37448;51.588;7.248;2023-12-20T10:19:42;10.25;;;3.65;;
51358;SDS011;37448;51.588;7.248;2023-12-20T10:21:43;9.32;;;4.05;;
51358;SDS011;37448;51.588;7.248;2023-12-20T10:23:45;8.95;;;4.40;;
51358;SDS011;37448;51.588;7.248;2023-12-20T10:25:55;8.10;;;3.83;;
51358;SDS011;37448;51.588;7.248;2023-12-20T10:28:08;9.75;;;3.95;;
51358;SDS011;37448;51.588;7.248;2023-12-20T10:30:09;10.48;;;4.32;;
51358;SDS011;37448;51.588;7.248;2023-12-20T10:32:23;11.52;;;4.03;;
51358;SDS011;37448;51.588;7.248;2023-12-20T10:34:24;8.10;;;4.57;;
51358;SDS011;37448;51.588;7.248;2023-12-20T10:36:25;10.65;;;5.07;;
51358;SDS011;37448;51.588;7.248;2023-12-20T10:38:27;11.10;;;4.78;;
51358;SDS011;37448;51.588;7.248;2023-12-20T10:40:29;9.35;;;4.60;;
51358;SDS011;37448;51.588;7.248;2023-12-20T10:42:29;9.50;;;4.28;;
51358;SDS011;37448;51.588;7.248;2023-12-20T10:44:31;15.48;;;4.10;;
51358;SDS011;37448;51.588;7.248;2023-12-20T10:46:31;9.25;;;5.15;;
51358;SDS011;37448;51.588;7.248;2023-12-20T10:48:32;13.00;;;5.72;;
51358;SDS011;37448;51.588;7.248;2023-12-20T10:50:34;11.80;;;4.93;;
51358;SDS011;37448;51.588;7.248;2023-12-20T10:52:39;11.13;;;4.85;;
51358;SDS011;37448;51.588;7.248;2023-12-20T10:54:40;12.75;;;5.35;;
51358;SDS011;37448;51.588;7.248;2023-12-20T10:56:41;12.73;;;5.93;;
51358;SDS011;37448;51.588;7.248;2023-12-20T10:58:42;15.23;;;5.00;;
51358;SDS011;37448;51.588;7.248;2023-12-20T11:00:45;15.68;;;4.95;;
51358;SDS011;37448;51.588;7.248;2023-12-20T11:02:48;13.27;;;3.95;;
51358;SDS011;37448;51.588;7.248;2023-12-20T11:04:56;11.23;;;4.95;;
51358;SDS011;37448;51.588;7.248;2023-12-20T11:07:08;8.52;;;4.00;;
51358;SDS011;37448;51.588;7.248;2023-12-20T11:09:43;11.55;;;4.60;;
51358;SDS011;37448;51.588;7.248;2023-12-20T11:14:11;8.80;;;3.80;;
51358;SDS011;37448;51.588;7.248;2023-12-20T11:16:17;10.98;;;4.60;;
51358;SDS011;37448;51.588;7.248;2023-12-20T11:18:17;13.85;;;4.63;;
51358;SDS011;37448;51.588;7.248;2023-12-20T11:20:17;12.00;;;4.45;;
51358;SDS011;37448;51.588;7.248;2023-12-20T11:22:21;11.90;;;4.68;;
51358;SDS011;37448;51.588;7.248;2023-12-20T11:26:27;10.45;;;4.43;;
51358;SDS011;37448;51.588;7.248;2023-12-20T11:28:29;8.35;;;3.90;;
51358;SDS011;37448;51.588;7.248;2023-12-20T11:30:42;11.68;;;3.50;;
51358;SDS011;37448;51.588;7.248;2023-12-20T11:32:43;13.10;;;5.18;;
51358;SDS011;37448;51.588;7.248;2023-12-20T11:34:46;10.00;;;3.67;;
51358;SDS011;37448;51.588;7.248;2023-12-20T11:36:46;6.55;;;3.60;;
51358;SDS011;37448;51.588;7.248;2023-12-20T11:38:56;10.68;;;3.90;;
51358;SDS011;37448;51.588;7.248;2023-12-20T11:40:58;9.93;;;3.45;;
51358;SDS011;37448;51.588;7.248;2023-12-20T11:43:03;11.48;;;4.35;;
51358;SDS011;37448;51.588;7.248;2023-12-20T11:45:15;13.48;;;5.15;;
51358;SDS011;37448;51.588;7.248;2023-12-20T11:47:19;12.63;;;3.92;;
51358;SDS011;37448;51.588;7.248;2023-12-20T11:49:22;14.88;;;4.80;;
51358;SDS011;37448;51.588;7.248;2023-12-20T11:51:24;12.55;;;5.72;;
51358;SDS011;37448;51.588;7.248;2023-12-20T11:53:24;7.97;;;4.32;;
51358;SDS011;37448;51.588;7.248;2023-12-20T11:55:24;7.72;;;4.05;;
51358;SDS011;37448;51.588;7.248;2023-12-20T11:57:25;9.80;;;4.72;;
51358;SDS011;37448;51.588;7.248;2023-12-20T11:59:25;9.40;;;5.32;;
51358;SDS011;37448;51.588;7.248;2023-12-20T12:01:26;15.75;;;6.07;;
51358;SDS011;37448;51.588;7.248;2023-12-20T12:03:26;17.73;;;6.47;;
51358;SDS011;37448;51.588;7.248;2023-12-20T12:05:27;16.23;;;4.93;;
51358;SDS011;37448;51.588;7.248;2023-12-20T12:07:27;15.32;;;6.85;;
51358;SDS011;37448;51.588;7.248;2023-12-20T12:09:27;14.43;;;5.65;;